sensor_id;sensor_type;location;lat;lon;timestamp;P1;durP1;ratioP1;P2;durP2;ratioP2
45676;SDS011;31390;51.186;6.830;2023-05-27T00:02:17;5.30;;;3.03;;
45676;SDS011;31390;51.186;6.830;2023-05-27T00:04:43;7.18;;;2.92;;
45676;SDS011;31390;51.186;6.830;2023-05-27T00:07:10;6.13;;;3.40;;
45676;SDS011;31390;51.186;6.830;2023-05-27T00:09:36;6.72;;;3.15;;
45676;SDS011;31390;51.186;6.830;2023-05-27T00:12:03;7.05;;;3.08;;
45676;SDS011;31390;51.186;6.830;2023-05-27T00:14:30;6.25;;;2.92;;
45676;SDS011;31390;51.186;6.830;2023-05-27T00:16:56;6.57;;;3.10;;
45676;SDS011;31390;51.186;6.830;2023-05-27T00:19:23;5.85;;;2.88;;
45676;SDS011;31390;51.186;6.830;2023-05-27T00:21:52;8.07;;;3.42;;
45676;SDS011;31390;51.186;6.830;2023-05-27T00:24:19;7.38;;;3.47;;
45676;SDS011;31390;51.186;6.830;2023-05-27T00:26:47;7.20;;;2.90;;
45676;SDS011;31390;51.186;6.830;2023-05-27T00:29:15;8.98;;;3.40;;
45676;SDS011;31390;51.186;6.830;2023-05-27T00:31:42;5.07;;;3.03;;
45676;SDS011;31390;51.186;6.830;2023-05-27T00:34:08;7.03;;;3.50;;
45676;SDS011;31390;51.186;6.830;2023-05-27T00:36:35;8.60;;;2.97;;
45676;SDS011;31390;51.186;6.830;2023-05-27T00:39:02;7.88;;;3.15;;
45676;SDS011;31390;51.186;6.830;2023-05-27T00:41:28;7.32;;;3.33;;
45676;SDS011;31390;51.186;6.830;2023-05-27T00:43:55;5.72;;;3.08;;
45676;SDS011;31390;51.186;6.830;2023-05-27T00:46:22;8.02;;;3.40;;
45676;SDS011;31390;51.186;6.830;2023-05-27T00:48:49;5.05;;;3.00;;
45676;SDS011;31390;51.186;6.830;2023-05-27T00:51:16;5.93;;;2.97;;
45676;SDS011;31390;51.186;6.830;2023-05-27T00:53:43;6.22;;;2.97;;
45676;SDS011;31390;51.186;6.830;2023-05-27T00:56:11;8.23;;;3.40;;
45676;SDS011;31390;51.186;6.830;2023-05-27T00:58:37;7.47;;;3.10;;
45676;SDS011;31390;51.186;6.830;2023-05-27T01:01:04;6.65;;;3.40;;
45676;SDS011;31390;51.186;6.830;2023-05-27T01:03:31;7.57;;;3.40;;
45676;SDS011;31390;51.186;6.830;2023-05-27T01:06:06;8.90;;;3.13;;
45676;SDS011;31390;51.186;6.830;2023-05-27T01:08:37;5.38;;;3.13;;
45676;SDS011;31390;51.186;6.830;2023-05-27T01:11:04;7.15;;;3.28;;
45676;SDS011;31390;51.186;6.830;2023-05-27T01:13:40;7.93;;;3.22;;
45676;SDS011;31390;51.186;6.830;2023-05-27T01:16:11;6.55;;;3.25;;
45676;SDS011;31390;51.186;6.830;2023-05-27T01:18:39;5.70;;;3.00;;
45676;SDS011;31390;51.186;6.830;2023-05-27T01:21:07;7.22;;;2.92;;
45676;SDS011;31390;51.186;6.830;2023-05-27T01:23:35;9.68;;;3.17;;
45676;SDS011;31390;51.186;6.830;2023-05-27T01:26:05;8.00;;;2.72;;
45676;SDS011;31390;51.186;6.830;2023-05-27T01:28:31;6.65;;;2.92;;
45676;SDS011;31390;51.186;6.830;2023-05-27T01:31:01;6.82;;;3.13;;
45676;SDS011;31390;51.186;6.830;2023-05-27T01:33:28;8.00;;;3.50;;
45676;SDS011;31390;51.186;6.830;2023-05-27T01:35:59;5.70;;;2.90;;
45676;SDS011;31390;51.186;6.830;2023-05-27T01:38:26;8.27;;;3.03;;
45676;SDS011;31390;51.186;6.830;2023-05-27T01:40:55;3.97;;;2.88;;
45676;SDS011;31390;51.186;6.830;2023-05-27T01:43:21;7.45;;;3.55;;
45676;SDS011;31390;51.186;6.830;2023-05-27T01:45:48;4.80;;;2.85;;
45676;SDS011;31390;51.186;6.830;2023-05-27T01:48:16;8.30;;;3.53;;
45676;SDS011;31390;51.186;6.830;2023-05-27T01:50:43;6.70;;;3.75;;
45676;SDS011;31390;51.186;6.830;2023-05-27T01:53:10;6.72;;;3.55;;
45676;SDS011;31390;51.186;6.830;2023-05-27T01:55:38;7.80;;;3.60;;
45676;SDS011;31390;51.186;6.830;2023-05-27T01:58:04;6.85;;;3.35;;
45676;SDS011;31390;51.186;6.830;2023-05-27T02:00:31;7.40;;;3.22;;
45676;SDS011;31390;51.186;6.830;2023-05-27T02:02:58;7.80;;;3.10;;
45676;SDS011;31390;51.186;6.830;2023-05-27T02:05:25;7.20;;;3.30;;
45676;SDS011;31390;51.186;6.830;2023-05-27T02:07:51;6.32;;;3.22;;
45676;SDS011;31390;51.186;6.830;2023-05-27T02:10:18;9.20;;;3.08;;
45676;SDS011;31390;51.186;6.830;2023-05-27T02:12:46;6.60;;;3.65;;
45676;SDS011;31390;51.186;6.830;2023-05-27T02:15:14;6.50;;;3.33;;
45676;SDS011;31390;51.186;6.830;2023-05-27T02:17:42;6.22;;;3.22;;
45676;SDS011;31390;51.186;6.830;2023-05-27T02:20:11;5.13;;;3.45;;
45676;SDS011;31390;51.186;6.830;2023-05-27T02:22:38;8.40;;;3.25;;
45676;SDS011;31390;51.186;6.830;2023-05-27T02:25:04;8.02;;;3.75;;
45676;SDS011;31390;51.186;6.830;2023-05-27T02:27:31;6.60;;;3.10;;
45676;SDS011;31390;51.186;6.830;2023-05-27T02:29:58;10.02;;;4.13;;
45676;SDS011;31390;51.186;6.830;2023-05-27T02:32:24;8.55;;;3.45;;
45676;SDS011;31390;51.186;6.830;2023-05-27T02:34:51;6.03;;;2.97;;
45676;SDS011;31390;51.186;6.830;2023-05-27T02:37:18;4.82;;;3.15;;
45676;SDS011;31390;51.186;6.830;2023-05-27T02:39:45;9.32;;;3.60;;
45676;SDS011;31390;51.186;6.830;2023-05-27T02:42:12;8.15;;;3.08;;
45676;SDS011;31390;51.186;6.830;2023-05-27T02:44:38;6.40;;;3.00;;
45676;SDS011;31390;51.186;6.830;2023-05-27T02:47:06;7.05;;;3.67;;
45676;SDS011;31390;51.186;6.830;2023-05-27T02:49:33;8.23;;;3.50;;
45676;SDS011;31390;51.186;6.830;2023-05-27T02:51:59;6.88;;;3.40;;
45676;SDS011;31390;51.186;6.830;2023-05-27T02:54:26;9.05;;;3.47;;
45676;SDS011;31390;51.186;6.830;2023-05-27T02:56:53;9.07;;;3.55;;
45676;SDS011;31390;51.186;6.830;2023-05-27T02:59:19;6.13;;;3.63;;
45676;SDS011;31390;51.186;6.830;2023-05-27T03:01:49;7.00;;;3.42;;
45676;SDS011;31390;51.186;6.830;2023-05-27T03:04:15;7.20;;;3.10;;
45676;SDS011;31390;51.186;6.830;2023-05-27T03:06:47;11.93;;;3.38;;
45676;SDS011;31390;51.186;6.830;2023-05-27T03:09:13;7.70;;;3.53;;
45676;SDS011;31390;51.186;6.830;2023-05-27T03:11:41;6.55;;;3.72;;
45676;SDS011;31390;51.186;6.830;2023-05-27T03:14:09;6.15;;;3.40;;
45676;SDS011;31390;51.186;6.830;2023-05-27T03:16:36;8.52;;;3.60;;
45676;SDS011;31390;51.186;6.830;2023-05-27T03:19:03;6.22;;;3.67;;
45676;SDS011;31390;51.186;6.830;2023-05-27T03:21:30;7.55;;;3.72;;
45676;SDS011;31390;51.186;6.830;2023-05-27T03:23:56;8.70;;;3.70;;
45676;SDS011;31390;51.186;6.830;2023-05-27T03:26:23;7.40;;;3.70;;
45676;SDS011;31390;51.186;6.830;2023-05-27T03:28:49;6.75;;;3.58;;
45676;SDS011;31390;51.186;6.830;2023-05-27T03:31:16;11.57;;;3.63;;
45676;SDS011;31390;51.186;6.830;2023-05-27T03:33:52;7.90;;;3.60;;
45676;SDS011;31390;51.186;6.830;2023-05-27T03:36:19;6.20;;;3.90;;
45676;SDS011;31390;51.186;6.830;2023-05-27T03:38:48;12.45;;;3.60;;
45676;SDS011;31390;51.186;6.830;2023-05-27T03:41:14;4.85;;;3.30;;
45676;SDS011;31390;51.186;6.830;2023-05-27T03:43:42;7.63;;;3.60;;
45676;SDS011;31390;51.186;6.830;2023-05-27T03:46:09;8.98;;;4.05;;
45676;SDS011;31390;51.186;6.830;2023-05-27T03:48:37;5.97;;;3.40;;
45676;SDS011;31390;51.186;6.830;2023-05-27T03:51:03;8.15;;;4.07;;
45676;SDS011;31390;51.186;6.830;2023-05-27T03:53:30;7.55;;;3.42;;
45676;SDS011;31390;51.186;6.830;2023-05-27T03:55:57;7.60;;;3.83;;
45676;SDS011;31390;51.186;6.830;2023-05-27T03:58:24;9.40;;;4.20;;
45676;SDS011;31390;51.186;6.830;2023-05-27T04:00:50;6.03;;;3.75;;
45676;SDS011;31390;51.186;6.830;2023-05-27T04:03:17;6.55;;;3.72;;
45676;SDS011;31390;51.186;6.830;2023-05-27T04:05:44;8.15;;;3.90;;
45676;SDS011;31390;51.186;6.830;2023-05-27T04:08:11;8.75;;;3.90;;
45676;SDS011;31390;51.186;6.830;2023-05-27T04:10:40;11.20;;;4.57;;
45676;SDS011;31390;51.186;6.830;2023-05-27T04:13:06;7.28;;;4.30;;
45676;SDS011;31390;51.186;6.830;2023-05-27T04:15:33;10.18;;;4.38;;
45676;SDS011;31390;51.186;6.830;2023-05-27T04:18:00;6.40;;;4.18;;
45676;SDS011;31390;51.186;6.830;2023-05-27T04:20:34;7.60;;;4.07;;
45676;SDS011;31390;51.186;6.830;2023-05-27T04:23:02;9.15;;;4.22;;
45676;SDS011;31390;51.186;6.830;2023-05-27T04:25:28;5.93;;;3.97;;
45676;SDS011;31390;51.186;6.830;2023-05-27T04:28:02;15.38;;;4.53;;
45676;SDS011;31390;51.186;6.830;2023-05-27T04:30:32;6.78;;;4.28;;
45676;SDS011;31390;51.186;6.830;2023-05-27T04:33:00;7.32;;;4.28;;
45676;SDS011;31390;51.186;6.830;2023-05-27T04:35:26;9.13;;;4.40;;
45676;SDS011;31390;51.186;6.830;2023-05-27T04:37:53;10.63;;;4.05;;
45676;SDS011;31390;51.186;6.830;2023-05-27T04:40:21;8.98;;;4.25;;
45676;SDS011;31390;51.186;6.830;2023-05-27T04:43:08;9.95;;;4.65;;
45676;SDS011;31390;51.186;6.830;2023-05-27T04:45:38;9.10;;;4.63;;
45676;SDS011;31390;51.186;6.830;2023-05-27T04:48:05;10.00;;;4.55;;
45676;SDS011;31390;51.186;6.830;2023-05-27T04:50:32;9.65;;;5.13;;
45676;SDS011;31390;51.186;6.830;2023-05-27T04:53:01;8.05;;;4.15;;
45676;SDS011;31390;51.186;6.830;2023-05-27T04:55:33;10.55;;;4.75;;
45676;SDS011;31390;51.186;6.830;2023-05-27T04:58:00;9.25;;;4.50;;
45676;SDS011;31390;51.186;6.830;2023-05-27T05:00:30;6.80;;;4.22;;
45676;SDS011;31390;51.186;6.830;2023-05-27T05:03:05;13.88;;;5.07;;
45676;SDS011;31390;51.186;6.830;2023-05-27T05:05:35;11.95;;;5.80;;
45676;SDS011;31390;51.186;6.830;2023-05-27T05:08:02;10.82;;;4.70;;
45676;SDS011;31390;51.186;6.830;2023-05-27T05:10:29;7.90;;;4.78;;
45676;SDS011;31390;51.186;6.830;2023-05-27T05:12:56;7.45;;;4.50;;
45676;SDS011;31390;51.186;6.830;2023-05-27T05:15:23;11.07;;;4.63;;
45676;SDS011;31390;51.186;6.830;2023-05-27T05:17:50;8.40;;;4.60;;
45676;SDS011;31390;51.186;6.830;2023-05-27T05:20:17;7.75;;;4.68;;
45676;SDS011;31390;51.186;6.830;2023-05-27T05:22:44;9.75;;;4.65;;
45676;SDS011;31390;51.186;6.830;2023-05-27T05:25:11;9.32;;;4.65;;
45676;SDS011;31390;51.186;6.830;2023-05-27T05:27:45;9.15;;;4.30;;
45676;SDS011;31390;51.186;6.830;2023-05-27T05:30:11;7.28;;;4.75;;
45676;SDS011;31390;51.186;6.830;2023-05-27T05:32:38;14.43;;;5.25;;
45676;SDS011;31390;51.186;6.830;2023-05-27T05:35:06;14.30;;;5.07;;
45676;SDS011;31390;51.186;6.830;2023-05-27T05:37:34;12.13;;;4.70;;
45676;SDS011;31390;51.186;6.830;2023-05-27T05:40:01;12.27;;;4.78;;
45676;SDS011;31390;51.186;6.830;2023-05-27T05:42:30;7.72;;;4.22;;
45676;SDS011;31390;51.186;6.830;2023-05-27T05:44:56;10.43;;;5.05;;
45676;SDS011;31390;51.186;6.830;2023-05-27T05:47:23;8.18;;;5.00;;
45676;SDS011;31390;51.186;6.830;2023-05-27T05:49:58;8.95;;;4.63;;
45676;SDS011;31390;51.186;6.830;2023-05-27T05:52:24;9.25;;;4.60;;
45676;SDS011;31390;51.186;6.830;2023-05-27T05:54:51;8.25;;;4.47;;
45676;SDS011;31390;51.186;6.830;2023-05-27T05:57:18;7.32;;;4.53;;
45676;SDS011;31390;51.186;6.830;2023-05-27T05:59:45;10.98;;;4.53;;
45676;SDS011;31390;51.186;6.830;2023-05-27T06:02:13;9.57;;;5.40;;
45676;SDS011;31390;51.186;6.830;2023-05-27T06:04:40;7.75;;;4.35;;
45676;SDS011;31390;51.186;6.830;2023-05-27T06:07:07;9.15;;;4.60;;
45676;SDS011;31390;51.186;6.830;2023-05-27T06:09:38;7.53;;;4.60;;
45676;SDS011;31390;51.186;6.830;2023-05-27T06:12:12;10.43;;;4.82;;
45676;SDS011;31390;51.186;6.830;2023-05-27T06:14:42;10.38;;;5.03;;
45676;SDS011;31390;51.186;6.830;2023-05-27T06:17:13;8.80;;;3.95;;
45676;SDS011;31390;51.186;6.830;2023-05-27T06:19:40;8.25;;;4.95;;
45676;SDS011;31390;51.186;6.830;2023-05-27T06:22:07;7.53;;;4.15;;
45676;SDS011;31390;51.186;6.830;2023-05-27T06:24:49;10.48;;;4.80;;
45676;SDS011;31390;51.186;6.830;2023-05-27T06:27:22;11.75;;;4.63;;
45676;SDS011;31390;51.186;6.830;2023-05-27T06:29:49;13.45;;;5.05;;
45676;SDS011;31390;51.186;6.830;2023-05-27T06:32:25;14.90;;;4.90;;
45676;SDS011;31390;51.186;6.830;2023-05-27T06:34:51;11.57;;;4.25;;
45676;SDS011;31390;51.186;6.830;2023-05-27T06:37:18;6.63;;;4.38;;
45676;SDS011;31390;51.186;6.830;2023-05-27T06:39:45;8.82;;;4.55;;
45676;SDS011;31390;51.186;6.830;2023-05-27T06:42:13;8.77;;;4.00;;
45676;SDS011;31390;51.186;6.830;2023-05-27T06:44:49;8.93;;;4.32;;
45676;SDS011;31390;51.186;6.830;2023-05-27T06:47:19;9.15;;;4.25;;
45676;SDS011;31390;51.186;6.830;2023-05-27T06:49:48;6.43;;;3.67;;
45676;SDS011;31390;51.186;6.830;2023-05-27T06:52:15;8.18;;;3.90;;
45676;SDS011;31390;51.186;6.830;2023-05-27T06:55:02;9.68;;;3.95;;
45676;SDS011;31390;51.186;6.830;2023-05-27T06:57:47;8.88;;;4.15;;
45676;SDS011;31390;51.186;6.830;2023-05-27T07:00:19;6.70;;;3.95;;
45676;SDS011;31390;51.186;6.830;2023-05-27T07:03:03;10.73;;;3.83;;
45676;SDS011;31390;51.186;6.830;2023-05-27T07:05:30;8.05;;;4.53;;
45676;SDS011;31390;51.186;6.830;2023-05-27T07:07:57;9.85;;;4.68;;
45676;SDS011;31390;51.186;6.830;2023-05-27T07:10:24;6.47;;;4.30;;
45676;SDS011;31390;51.186;6.830;2023-05-27T07:12:50;8.00;;;3.95;;
45676;SDS011;31390;51.186;6.830;2023-05-27T07:15:56;7.85;;;4.00;;
45676;SDS011;31390;51.186;6.830;2023-05-27T07:18:22;8.30;;;4.43;;
45676;SDS011;31390;51.186;6.830;2023-05-27T07:20:52;14.75;;;4.88;;
45676;SDS011;31390;51.186;6.830;2023-05-27T07:23:19;8.02;;;3.95;;
45676;SDS011;31390;51.186;6.830;2023-05-27T07:25:54;7.43;;;4.10;;
45676;SDS011;31390;51.186;6.830;2023-05-27T07:28:23;6.57;;;3.85;;
45676;SDS011;31390;51.186;6.830;2023-05-27T07:30:59;9.38;;;4.63;;
45676;SDS011;31390;51.186;6.830;2023-05-27T07:33:27;10.02;;;4.55;;
45676;SDS011;31390;51.186;6.830;2023-05-27T07:35:54;6.18;;;3.78;;
45676;SDS011;31390;51.186;6.830;2023-05-27T07:38:21;12.40;;;4.00;;
45676;SDS011;31390;51.186;6.830;2023-05-27T07:40:47;7.47;;;3.72;;
45676;SDS011;31390;51.186;6.830;2023-05-27T07:43:14;10.20;;;4.22;;
45676;SDS011;31390;51.186;6.830;2023-05-27T07:45:42;6.97;;;3.92;;
45676;SDS011;31390;51.186;6.830;2023-05-27T07:48:08;12.05;;;4.28;;
45676;SDS011;31390;51.186;6.830;2023-05-27T07:50:35;8.65;;;4.00;;
45676;SDS011;31390;51.186;6.830;2023-05-27T07:53:13;9.43;;;3.95;;
45676;SDS011;31390;51.186;6.830;2023-05-27T07:55:45;9.00;;;4.35;;
45676;SDS011;31390;51.186;6.830;2023-05-27T07:58:12;8.25;;;3.95;;
45676;SDS011;31390;51.186;6.830;2023-05-27T08:00:53;8.77;;;3.88;;
45676;SDS011;31390;51.186;6.830;2023-05-27T08:03:20;6.65;;;3.08;;
45676;SDS011;31390;51.186;6.830;2023-05-27T08:05:56;6.57;;;3.95;;
45676;SDS011;31390;51.186;6.830;2023-05-27T08:08:53;7.13;;;3.50;;
45676;SDS011;31390;51.186;6.830;2023-05-27T08:11:19;6.07;;;3.38;;
45676;SDS011;31390;51.186;6.830;2023-05-27T08:13:58;6.85;;;3.38;;
45676;SDS011;31390;51.186;6.830;2023-05-27T08:16:33;7.22;;;3.72;;
45676;SDS011;31390;51.186;6.830;2023-05-27T08:19:19;4.85;;;3.17;;
45676;SDS011;31390;51.186;6.830;2023-05-27T08:22:24;10.38;;;3.47;;
45676;SDS011;31390;51.186;6.830;2023-05-27T08:25:20;11.43;;;3.85;;
45676;SDS011;31390;51.186;6.830;2023-05-27T08:28:10;6.38;;;3.28;;
45676;SDS011;31390;51.186;6.830;2023-05-27T08:31:00;10.45;;;4.05;;
45676;SDS011;31390;51.186;6.830;2023-05-27T08:33:39;6.75;;;3.38;;
45676;SDS011;31390;51.186;6.830;2023-05-27T08:36:06;6.50;;;3.40;;
45676;SDS011;31390;51.186;6.830;2023-05-27T08:38:33;7.72;;;3.47;;
45676;SDS011;31390;51.186;6.830;2023-05-27T08:41:16;7.72;;;3.60;;
45676;SDS011;31390;51.186;6.830;2023-05-27T08:43:43;7.13;;;3.60;;
45676;SDS011;31390;51.186;6.830;2023-05-27T08:46:12;7.68;;;3.53;;
45676;SDS011;31390;51.186;6.830;2023-05-27T08:48:40;10.32;;;3.85;;
45676;SDS011;31390;51.186;6.830;2023-05-27T08:51:07;5.95;;;3.13;;
45676;SDS011;31390;51.186;6.830;2023-05-27T08:53:36;8.25;;;3.30;;
45676;SDS011;31390;51.186;6.830;2023-05-27T08:56:04;5.55;;;3.22;;
45676;SDS011;31390;51.186;6.830;2023-05-27T08:58:35;7.43;;;3.75;;
45676;SDS011;31390;51.186;6.830;2023-05-27T09:01:02;6.95;;;3.10;;
45676;SDS011;31390;51.186;6.830;2023-05-27T09:03:29;7.20;;;3.08;;
45676;SDS011;31390;51.186;6.830;2023-05-27T09:05:56;9.38;;;3.35;;
45676;SDS011;31390;51.186;6.830;2023-05-27T09:08:23;8.85;;;3.17;;
45676;SDS011;31390;51.186;6.830;2023-05-27T09:11:03;6.78;;;3.10;;
45676;SDS011;31390;51.186;6.830;2023-05-27T09:13:34;6.85;;;3.50;;
45676;SDS011;31390;51.186;6.830;2023-05-27T09:16:01;9.52;;;3.70;;
45676;SDS011;31390;51.186;6.830;2023-05-27T09:18:29;7.50;;;3.05;;
45676;SDS011;31390;51.186;6.830;2023-05-27T09:20:56;5.07;;;2.88;;
45676;SDS011;31390;51.186;6.830;2023-05-27T09:23:23;5.60;;;3.40;;
45676;SDS011;31390;51.186;6.830;2023-05-27T09:25:49;7.32;;;2.97;;
45676;SDS011;31390;51.186;6.830;2023-05-27T09:28:20;8.02;;;3.10;;
45676;SDS011;31390;51.186;6.830;2023-05-27T09:30:50;7.28;;;3.38;;
45676;SDS011;31390;51.186;6.830;2023-05-27T09:33:25;8.88;;;3.30;;
45676;SDS011;31390;51.186;6.830;2023-05-27T09:35:52;8.15;;;3.33;;
45676;SDS011;31390;51.186;6.830;2023-05-27T09:38:18;7.60;;;3.13;;
45676;SDS011;31390;51.186;6.830;2023-05-27T09:40:45;6.35;;;3.20;;
45676;SDS011;31390;51.186;6.830;2023-05-27T09:43:15;10.30;;;3.22;;
45676;SDS011;31390;51.186;6.830;2023-05-27T09:45:42;6.30;;;2.83;;
45676;SDS011;31390;51.186;6.830;2023-05-27T09:48:09;11.63;;;3.47;;
45676;SDS011;31390;51.186;6.830;2023-05-27T09:50:36;7.07;;;2.92;;
45676;SDS011;31390;51.186;6.830;2023-05-27T09:53:03;7.25;;;2.97;;
45676;SDS011;31390;51.186;6.830;2023-05-27T09:55:38;7.32;;;3.00;;
45676;SDS011;31390;51.186;6.830;2023-05-27T09:58:05;7.00;;;2.95;;
45676;SDS011;31390;51.186;6.830;2023-05-27T10:00:33;9.70;;;3.35;;
45676;SDS011;31390;51.186;6.830;2023-05-27T10:03:00;5.15;;;2.83;;
45676;SDS011;31390;51.186;6.830;2023-05-27T10:05:27;5.95;;;2.90;;
45676;SDS011;31390;51.186;6.830;2023-05-27T10:07:53;11.07;;;3.42;;
45676;SDS011;31390;51.186;6.830;2023-05-27T10:10:40;10.10;;;3.05;;
45676;SDS011;31390;51.186;6.830;2023-05-27T10:13:07;7.50;;;2.85;;
45676;SDS011;31390;51.186;6.830;2023-05-27T10:15:34;7.50;;;3.03;;
45676;SDS011;31390;51.186;6.830;2023-05-27T10:18:02;8.90;;;3.20;;
45676;SDS011;31390;51.186;6.830;2023-05-27T10:20:33;8.05;;;3.33;;
45676;SDS011;31390;51.186;6.830;2023-05-27T10:23:13;5.07;;;2.53;;
45676;SDS011;31390;51.186;6.830;2023-05-27T10:25:47;8.82;;;3.28;;
45676;SDS011;31390;51.186;6.830;2023-05-27T10:28:26;6.72;;;2.83;;
45676;SDS011;31390;51.186;6.830;2023-05-27T10:30:53;6.00;;;2.78;;
45676;SDS011;31390;51.186;6.830;2023-05-27T10:33:29;5.60;;;2.90;;
45676;SDS011;31390;51.186;6.830;2023-05-27T10:38:35;8.30;;;2.50;;
45676;SDS011;31390;51.186;6.830;2023-05-27T10:41:02;6.72;;;2.75;;
45676;SDS011;31390;51.186;6.830;2023-05-27T10:43:29;7.47;;;2.70;;
45676;SDS011;31390;51.186;6.830;2023-05-27T10:46:11;7.57;;;2.65;;
45676;SDS011;31390;51.186;6.830;2023-05-27T10:48:38;7.45;;;2.55;;
45676;SDS011;31390;51.186;6.830;2023-05-27T10:51:08;6.75;;;2.60;;
45676;SDS011;31390;51.186;6.830;2023-05-27T10:53:35;8.05;;;2.28;;
45676;SDS011;31390;51.186;6.830;2023-05-27T10:56:02;5.43;;;2.17;;
45676;SDS011;31390;51.186;6.830;2023-05-27T10:58:29;6.65;;;2.53;;
45676;SDS011;31390;51.186;6.830;2023-05-27T11:00:55;3.75;;;1.80;;
45676;SDS011;31390;51.186;6.830;2023-05-27T11:03:25;4.90;;;2.00;;
45676;SDS011;31390;51.186;6.830;2023-05-27T11:08:24;5.57;;;2.40;;
45676;SDS011;31390;51.186;6.830;2023-05-27T11:10:50;2.13;;;1.42;;
45676;SDS011;31390;51.186;6.830;2023-05-27T11:13:17;5.05;;;2.10;;
45676;SDS011;31390;51.186;6.830;2023-05-27T11:15:44;5.57;;;2.35;;
45676;SDS011;31390;51.186;6.830;2023-05-27T11:18:10;5.78;;;1.95;;
45676;SDS011;31390;51.186;6.830;2023-05-27T11:20:37;6.72;;;2.17;;
45676;SDS011;31390;51.186;6.830;2023-05-27T11:23:04;5.05;;;2.10;;
45676;SDS011;31390;51.186;6.830;2023-05-27T11:25:52;6.00;;;2.00;;
45676;SDS011;31390;51.186;6.830;2023-05-27T11:28:18;3.78;;;1.98;;
45676;SDS011;31390;51.186;6.830;2023-05-27T11:30:44;7.82;;;1.75;;
45676;SDS011;31390;51.186;6.830;2023-05-27T11:33:13;6.38;;;1.70;;
45676;SDS011;31390;51.186;6.830;2023-05-27T11:36:06;5.18;;;1.85;;
45676;SDS011;31390;51.186;6.830;2023-05-27T11:41:19;3.40;;;1.80;;
45676;SDS011;31390;51.186;6.830;2023-05-27T11:43:52;5.18;;;1.92;;
45676;SDS011;31390;51.186;6.830;2023-05-27T11:46:19;7.72;;;2.08;;
45676;SDS011;31390;51.186;6.830;2023-05-27T11:48:46;3.10;;;1.60;;
45676;SDS011;31390;51.186;6.830;2023-05-27T11:51:12;5.85;;;1.73;;
45676;SDS011;31390;51.186;6.830;2023-05-27T11:53:40;3.60;;;1.85;;
45676;SDS011;31390;51.186;6.830;2023-05-27T11:56:07;2.97;;;1.88;;
45676;SDS011;31390;51.186;6.830;2023-05-27T11:58:33;5.45;;;1.70;;
45676;SDS011;31390;51.186;6.830;2023-05-27T12:01:00;5.28;;;1.90;;
45676;SDS011;31390;51.186;6.830;2023-05-27T12:03:27;3.83;;;1.65;;
45676;SDS011;31390;51.186;6.830;2023-05-27T12:05:53;2.78;;;1.40;;
45676;SDS011;31390;51.186;6.830;2023-05-27T12:08:20;3.92;;;1.83;;
45676;SDS011;31390;51.186;6.830;2023-05-27T12:10:47;3.08;;;1.52;;
45676;SDS011;31390;51.186;6.830;2023-05-27T12:13:16;4.30;;;1.98;;
45676;SDS011;31390;51.186;6.830;2023-05-27T12:15:43;5.93;;;1.65;;
45676;SDS011;31390;51.186;6.830;2023-05-27T12:18:09;5.05;;;1.90;;
45676;SDS011;31390;51.186;6.830;2023-05-27T12:20:36;3.22;;;1.50;;
45676;SDS011;31390;51.186;6.830;2023-05-27T12:23:03;4.50;;;1.58;;
45676;SDS011;31390;51.186;6.830;2023-05-27T12:25:30;4.03;;;1.70;;
45676;SDS011;31390;51.186;6.830;2023-05-27T12:27:57;3.92;;;1.88;;
45676;SDS011;31390;51.186;6.830;2023-05-27T12:30:23;4.65;;;1.88;;
45676;SDS011;31390;51.186;6.830;2023-05-27T12:32:50;8.55;;;2.67;;
45676;SDS011;31390;51.186;6.830;2023-05-27T12:35:16;8.25;;;2.05;;
45676;SDS011;31390;51.186;6.830;2023-05-27T12:37:43;4.03;;;2.00;;
45676;SDS011;31390;51.186;6.830;2023-05-27T12:40:10;3.38;;;1.70;;
45676;SDS011;31390;51.186;6.830;2023-05-27T12:42:41;4.90;;;1.80;;
45676;SDS011;31390;51.186;6.830;2023-05-27T12:45:08;4.20;;;1.75;;
45676;SDS011;31390;51.186;6.830;2023-05-27T12:47:35;5.50;;;1.83;;
45676;SDS011;31390;51.186;6.830;2023-05-27T12:50:02;4.85;;;1.85;;
45676;SDS011;31390;51.186;6.830;2023-05-27T12:52:30;5.50;;;2.03;;
45676;SDS011;31390;51.186;6.830;2023-05-27T12:54:57;4.93;;;1.85;;
45676;SDS011;31390;51.186;6.830;2023-05-27T12:57:23;3.28;;;1.90;;
45676;SDS011;31390;51.186;6.830;2023-05-27T12:59:50;4.55;;;2.17;;
45676;SDS011;31390;51.186;6.830;2023-05-27T13:02:17;7.90;;;2.10;;
45676;SDS011;31390;51.186;6.830;2023-05-27T13:04:44;3.97;;;2.00;;
45676;SDS011;31390;51.186;6.830;2023-05-27T13:07:11;5.30;;;1.92;;
45676;SDS011;31390;51.186;6.830;2023-05-27T13:09:37;4.03;;;1.70;;
45676;SDS011;31390;51.186;6.830;2023-05-27T13:12:05;2.40;;;1.58;;
45676;SDS011;31390;51.186;6.830;2023-05-27T13:14:32;2.05;;;1.42;;
45676;SDS011;31390;51.186;6.830;2023-05-27T13:16:59;3.97;;;1.75;;
45676;SDS011;31390;51.186;6.830;2023-05-27T13:19:26;4.28;;;2.00;;
45676;SDS011;31390;51.186;6.830;2023-05-27T13:21:53;5.15;;;2.05;;
45676;SDS011;31390;51.186;6.830;2023-05-27T13:24:21;2.53;;;1.63;;
45676;SDS011;31390;51.186;6.830;2023-05-27T13:26:47;6.90;;;1.52;;
45676;SDS011;31390;51.186;6.830;2023-05-27T13:29:14;9.05;;;1.85;;
45676;SDS011;31390;51.186;6.830;2023-05-27T13:31:41;7.30;;;1.77;;
45676;SDS011;31390;51.186;6.830;2023-05-27T13:34:09;4.47;;;1.88;;
45676;SDS011;31390;51.186;6.830;2023-05-27T13:36:36;5.97;;;2.10;;
45676;SDS011;31390;51.186;6.830;2023-05-27T13:39:02;7.82;;;2.03;;
45676;SDS011;31390;51.186;6.830;2023-05-27T13:41:29;4.38;;;2.42;;
45676;SDS011;31390;51.186;6.830;2023-05-27T13:43:55;4.97;;;2.10;;
45676;SDS011;31390;51.186;6.830;2023-05-27T13:46:22;3.40;;;1.67;;
45676;SDS011;31390;51.186;6.830;2023-05-27T13:48:49;9.02;;;2.63;;
45676;SDS011;31390;51.186;6.830;2023-05-27T13:51:15;3.50;;;2.05;;
45676;SDS011;31390;51.186;6.830;2023-05-27T13:53:42;7.38;;;1.90;;
45676;SDS011;31390;51.186;6.830;2023-05-27T13:56:09;6.22;;;2.03;;
45676;SDS011;31390;51.186;6.830;2023-05-27T13:58:36;4.65;;;2.17;;
45676;SDS011;31390;51.186;6.830;2023-05-27T14:01:03;4.55;;;2.00;;
45676;SDS011;31390;51.186;6.830;2023-05-27T14:03:30;6.97;;;2.03;;
45676;SDS011;31390;51.186;6.830;2023-05-27T14:05:56;9.85;;;2.55;;
45676;SDS011;31390;51.186;6.830;2023-05-27T14:08:23;6.00;;;2.35;;
45676;SDS011;31390;51.186;6.830;2023-05-27T14:10:50;4.05;;;2.15;;
45676;SDS011;31390;51.186;6.830;2023-05-27T14:13:16;2.72;;;1.60;;
45676;SDS011;31390;51.186;6.830;2023-05-27T14:15:43;3.38;;;2.20;;
45676;SDS011;31390;51.186;6.830;2023-05-27T14:18:10;5.97;;;2.67;;
45676;SDS011;31390;51.186;6.830;2023-05-27T14:20:36;8.88;;;2.63;;
45676;SDS011;31390;51.186;6.830;2023-05-27T14:23:03;4.20;;;1.60;;
45676;SDS011;31390;51.186;6.830;2023-05-27T14:25:31;3.75;;;1.92;;
45676;SDS011;31390;51.186;6.830;2023-05-27T14:27:57;4.00;;;2.03;;
45676;SDS011;31390;51.186;6.830;2023-05-27T14:30:27;5.00;;;1.88;;
45676;SDS011;31390;51.186;6.830;2023-05-27T14:32:56;6.22;;;1.77;;
45676;SDS011;31390;51.186;6.830;2023-05-27T14:35:25;9.50;;;2.30;;
45676;SDS011;31390;51.186;6.830;2023-05-27T14:37:52;6.68;;;1.80;;
45676;SDS011;31390;51.186;6.830;2023-05-27T14:40:19;2.45;;;1.45;;
45676;SDS011;31390;51.186;6.830;2023-05-27T14:42:45;8.52;;;1.90;;
45676;SDS011;31390;51.186;6.830;2023-05-27T14:45:12;6.28;;;2.30;;
45676;SDS011;31390;51.186;6.830;2023-05-27T14:47:39;5.03;;;1.98;;
45676;SDS011;31390;51.186;6.830;2023-05-27T14:50:06;4.63;;;1.83;;
45676;SDS011;31390;51.186;6.830;2023-05-27T14:52:33;4.65;;;2.08;;
45676;SDS011;31390;51.186;6.830;2023-05-27T14:54:59;3.35;;;1.88;;
45676;SDS011;31390;51.186;6.830;2023-05-27T14:57:26;4.15;;;1.73;;
45676;SDS011;31390;51.186;6.830;2023-05-27T14:59:52;6.50;;;1.90;;
45676;SDS011;31390;51.186;6.830;2023-05-27T15:02:19;5.18;;;1.77;;
45676;SDS011;31390;51.186;6.830;2023-05-27T15:04:47;7.40;;;1.85;;